createdAt,value
2024-01-28T00:00:17.954Z,20.30
2024-01-28T00:01:17.940Z,21.50
2024-01-28T00:02:17.968Z,21.30
2024-01-28T00:03:17.850Z,20.00
2024-01-28T00:04:17.792Z,21.20
2024-01-28T00:05:17.830Z,18.60
2024-01-28T00:06:17.843Z,20.60
2024-01-28T00:07:17.764Z,21.80
2024-01-28T00:08:17.723Z,19.60
2024-01-28T00:09:17.762Z,22.10
2024-01-28T00:10:17.720Z,20.60
2024-01-28T00:11:17.715Z,18.90
2024-01-28T00:12:17.724Z,17.90
2024-01-28T00:13:18.772Z,23.70
2024-01-28T00:14:17.668Z,19.00
2024-01-28T00:15:17.679Z,17.20
2024-01-28T00:16:17.714Z,21.40
2024-01-28T00:17:17.700Z,18.90
2024-01-28T00:18:17.751Z,19.00
2024-01-28T00:19:17.709Z,19.80
2024-01-28T00:20:17.605Z,18.80
2024-01-28T00:21:17.642Z,18.00
2024-01-28T00:22:17.602Z,19.80
2024-01-28T00:23:17.582Z,17.60
2024-01-28T00:24:17.601Z,23.00
2024-01-28T00:25:17.566Z,20.60
2024-01-28T00:26:17.547Z,20.50
2024-01-28T00:27:17.641Z,20.50
2024-01-28T00:28:17.548Z,17.40
2024-01-28T00:29:17.532Z,17.60
2024-01-28T00:30:17.533Z,18.90
2024-01-28T00:31:17.551Z,15.50
2024-01-28T00:32:17.482Z,20.80
2024-01-28T00:33:18.094Z,20.70
2024-01-28T00:34:17.535Z,19.70
2024-01-28T00:35:17.458Z,19.40
2024-01-28T00:36:17.530Z,21.10
2024-01-28T00:37:17.439Z,17.10
2024-01-28T00:38:18.553Z,23.00
2024-01-28T00:39:17.465Z,16.20
2024-01-28T00:40:17.399Z,18.50
2024-01-28T00:41:17.398Z,19.90
2024-01-28T00:42:17.590Z,18.90
2024-01-28T00:43:17.398Z,18.90
2024-01-28T00:44:17.364Z,17.30
2024-01-28T00:45:17.404Z,19.30
2024-01-28T00:46:17.340Z,19.20
2024-01-28T00:47:17.392Z,20.60
2024-01-28T00:48:17.491Z,18.70
2024-01-28T00:49:17.525Z,19.50
2024-01-28T00:50:17.524Z,17.50
2024-01-28T00:51:17.327Z,20.40
2024-01-28T00:52:17.280Z,20.60
2024-01-28T00:53:17.329Z,21.50
2024-01-28T00:54:17.288Z,18.10
2024-01-28T00:55:17.261Z,17.90
2024-01-28T00:56:17.383Z,18.60
2024-01-28T00:57:17.250Z,20.80
2024-01-28T00:58:17.231Z,21.90
2024-01-28T00:59:17.243Z,21.20
2024-01-28T01:00:17.220Z,17.90
2024-01-28T01:01:17.221Z,22.00
2024-01-28T01:02:17.232Z,16.90
2024-01-28T01:03:17.253Z,17.10
2024-01-28T01:04:17.539Z,22.50
2024-01-28T01:05:17.192Z,24.90
2024-01-28T01:06:17.219Z,15.70
2024-01-28T01:07:17.295Z,19.20
2024-01-28T01:08:17.117Z,21.00
2024-01-28T01:09:17.150Z,22.60
2024-01-28T01:10:17.097Z,22.10
2024-01-28T01:11:17.096Z,24.70
2024-01-28T01:12:17.109Z,32.10
2024-01-28T01:13:17.067Z,32.40
2024-01-28T01:14:17.084Z,29.80
2024-01-28T01:15:17.106Z,27.50
2024-01-28T01:16:17.040Z,24.50
2024-01-28T01:17:17.040Z,25.90
2024-01-28T01:18:17.152Z,27.50
2024-01-28T01:19:17.135Z,26.40
2024-01-28T01:20:17.042Z,23.30
2024-01-28T01:21:17.042Z,24.30
2024-01-28T01:22:16.975Z,27.00
2024-01-28T01:23:16.976Z,26.10
2024-01-28T01:24:17.020Z,25.20
2024-01-28T01:25:16.958Z,23.30
2024-01-28T01:26:16.932Z,25.10
2024-01-28T01:27:17.053Z,24.00
2024-01-28T01:28:17.047Z,30.10
2024-01-28T01:29:16.928Z,32.70
2024-01-28T01:30:16.945Z,42.20
2024-01-28T01:31:16.893Z,39.40
2024-01-28T01:32:16.862Z,49.40
2024-01-28T01:33:17.021Z,45.90
2024-01-28T01:34:17.041Z,51.60
2024-01-28T01:35:16.926Z,55.20
2024-01-28T01:36:16.877Z,52.90
2024-01-28T01:37:16.828Z,62.20
2024-01-28T01:38:16.805Z,62.00
2024-01-28T01:39:16.860Z,65.30
2024-01-28T01:40:16.826Z,63.60
2024-01-28T01:41:16.789Z,57.20
2024-01-28T01:42:16.810Z,60.90
2024-01-28T01:43:16.841Z,55.50
2024-01-28T01:44:16.774Z,60.60
2024-01-28T01:45:16.815Z,59.50
2024-01-28T01:46:16.733Z,52.20
2024-01-28T01:47:16.748Z,47.90
2024-01-28T01:48:16.874Z,44.80
2024-01-28T01:49:16.925Z,47.00
2024-01-28T01:50:16.719Z,47.90
2024-01-28T01:51:16.714Z,47.00
2024-01-28T01:52:16.682Z,43.00
2024-01-28T01:53:16.680Z,38.80
2024-01-28T01:54:16.693Z,41.30
2024-01-28T01:55:16.662Z,43.00
2024-01-28T01:56:16.636Z,37.30
2024-01-28T01:57:17.189Z,41.30
2024-01-28T01:58:16.635Z,42.90
2024-01-28T01:59:16.630Z,37.00
2024-01-28T02:00:16.974Z,39.60
2024-01-28T02:01:16.640Z,38.90
2024-01-28T02:02:16.573Z,38.60
2024-01-28T02:03:16.648Z,38.30
2024-01-28T02:04:16.622Z,37.20
2024-01-28T02:05:16.575Z,37.30
2024-01-28T02:06:16.561Z,35.90
2024-01-28T02:07:16.537Z,32.60
2024-01-28T02:08:16.528Z,33.80
2024-01-28T02:09:17.490Z,30.00
2024-01-28T02:10:16.508Z,34.10
2024-01-28T02:11:16.492Z,30.10
2024-01-28T02:12:16.500Z,25.30
2024-01-28T02:13:16.484Z,25.20
2024-01-28T02:14:16.476Z,28.80
2024-01-28T02:15:16.494Z,24.00
2024-01-28T02:16:16.436Z,24.50
2024-01-28T02:17:16.436Z,25.80
2024-01-28T02:18:16.498Z,28.20
2024-01-28T02:19:16.532Z,23.30
2024-01-28T02:20:16.399Z,24.70
2024-01-28T02:21:16.952Z,23.90
2024-01-28T02:22:16.407Z,22.20
2024-01-28T02:23:16.371Z,26.20
2024-01-28T02:24:16.424Z,26.20
2024-01-28T02:25:16.396Z,25.50
2024-01-28T02:26:16.352Z,29.60
2024-01-28T02:27:16.383Z,27.40
2024-01-28T02:28:16.325Z,27.50
2024-01-28T02:29:16.360Z,25.90
2024-01-28T02:30:16.310Z,25.50
2024-01-28T02:31:16.293Z,25.90
2024-01-28T02:32:16.286Z,26.90
2024-01-28T02:33:16.427Z,25.00
2024-01-28T02:34:16.388Z,24.60
2024-01-28T02:35:16.271Z,24.30
2024-01-28T02:36:16.283Z,23.50
2024-01-28T02:37:16.263Z,24.60
2024-01-28T02:38:16.239Z,27.20
2024-01-28T02:39:16.307Z,25.50
2024-01-28T02:40:16.241Z,21.80
2024-01-28T02:41:16.201Z,26.10
2024-01-28T02:42:16.210Z,25.20
2024-01-28T02:43:16.170Z,23.60
2024-01-28T02:44:16.181Z,21.30
2024-01-28T02:45:16.313Z,24.20
2024-01-28T02:46:16.147Z,23.20
2024-01-28T02:47:16.143Z,25.40
2024-01-28T02:48:16.160Z,25.30
2024-01-28T02:49:16.839Z,24.80
2024-01-28T02:50:16.108Z,26.60
2024-01-28T02:51:16.140Z,22.10
2024-01-28T02:52:16.081Z,24.90
2024-01-28T02:53:16.077Z,25.70
2024-01-28T02:54:16.155Z,23.20
2024-01-28T02:55:16.048Z,24.50
2024-01-28T02:56:16.051Z,24.10
2024-01-28T02:57:16.114Z,23.40
2024-01-28T02:58:16.021Z,22.00
2024-01-28T02:59:16.051Z,21.60
2024-01-28T03:00:16.168Z,23.70
2024-01-28T03:01:16.095Z,23.80
2024-01-28T03:02:15.990Z,24.00
2024-01-28T03:03:16.139Z,23.50
2024-01-28T03:04:16.431Z,24.80
2024-01-28T03:05:15.971Z,23.90
2024-01-28T03:06:16.036Z,22.80
2024-01-28T03:07:16.233Z,25.30
2024-01-28T03:08:15.937Z,25.10
2024-01-28T03:09:15.971Z,22.40
2024-01-28T03:10:15.906Z,23.80
2024-01-28T03:11:15.902Z,27.20
2024-01-28T03:12:15.935Z,25.10
2024-01-28T03:13:15.896Z,25.40
2024-01-28T03:14:15.888Z,26.60
2024-01-28T03:15:15.861Z,25.90
2024-01-28T03:16:15.853Z,23.80
2024-01-28T03:17:15.866Z,26.00
2024-01-28T03:18:15.886Z,24.90
2024-01-28T03:19:15.919Z,26.30
2024-01-28T03:20:15.823Z,25.00
2024-01-28T03:21:15.993Z,24.30
2024-01-28T03:22:15.802Z,22.70
2024-01-28T03:23:15.790Z,22.60
2024-01-28T03:24:15.866Z,23.70
2024-01-28T03:25:15.767Z,24.00
2024-01-28T03:26:15.780Z,24.80
2024-01-28T03:27:15.823Z,23.50
2024-01-28T03:28:15.763Z,26.70
2024-01-28T03:29:15.749Z,23.40
2024-01-28T03:30:15.754Z,23.30
2024-01-28T03:31:15.735Z,30.60
2024-01-28T03:32:15.703Z,27.70
2024-01-28T03:33:15.781Z,24.30
2024-01-28T03:34:15.818Z,27.80
2024-01-28T03:35:15.662Z,25.20
2024-01-28T03:36:15.694Z,26.20
2024-01-28T03:37:15.658Z,25.20
2024-01-28T03:38:15.636Z,27.40
2024-01-28T03:39:15.667Z,25.00
2024-01-28T03:40:15.608Z,27.10
2024-01-28T03:41:15.623Z,24.10
2024-01-28T03:42:15.602Z,29.00
2024-01-28T03:43:15.603Z,23.40
2024-01-28T03:44:15.581Z,27.80
2024-01-28T03:45:15.601Z,25.10
2024-01-28T03:46:15.551Z,27.10
2024-01-28T03:47:15.545Z,23.60
2024-01-28T03:48:15.615Z,28.40
2024-01-28T03:49:15.657Z,24.50
2024-01-28T03:50:15.531Z,26.40
2024-01-28T03:51:15.511Z,23.60
2024-01-28T03:52:15.487Z,28.90
2024-01-28T03:53:15.512Z,25.20
2024-01-28T03:54:15.541Z,26.10
2024-01-28T03:55:15.468Z,25.10
2024-01-28T03:56:15.448Z,24.80
2024-01-28T03:57:15.471Z,28.30
2024-01-28T03:58:15.435Z,27.80
2024-01-28T03:59:15.449Z,31.30
2024-01-28T04:00:15.461Z,27.50
2024-01-28T04:01:15.535Z,26.60
2024-01-28T04:02:15.441Z,25.00
2024-01-28T04:03:15.412Z,25.60
2024-01-28T04:04:15.409Z,24.00
2024-01-28T04:05:15.440Z,26.90
2024-01-28T04:06:15.407Z,29.80
2024-01-28T04:07:15.415Z,23.50
2024-01-28T04:08:15.337Z,29.40
2024-01-28T04:09:15.404Z,25.80
2024-01-28T04:10:15.310Z,30.70
2024-01-28T04:11:15.310Z,29.60
2024-01-28T04:12:15.321Z,27.20
2024-01-28T04:13:15.295Z,28.30
2024-01-28T04:14:15.296Z,26.20
2024-01-28T04:15:15.308Z,25.00
2024-01-28T04:16:15.254Z,22.50
2024-01-28T04:17:15.241Z,25.90
2024-01-28T04:18:15.335Z,21.50
2024-01-28T04:19:15.351Z,27.60
2024-01-28T04:20:15.217Z,28.10
2024-01-28T04:21:15.222Z,25.70
2024-01-28T04:22:15.190Z,25.30
2024-01-28T04:23:15.195Z,28.90
2024-01-28T04:24:15.205Z,27.60
2024-01-28T04:25:15.176Z,27.50
2024-01-28T04:26:15.168Z,28.70
2024-01-28T04:27:15.185Z,31.70
2024-01-28T04:28:15.136Z,28.10
2024-01-28T04:29:15.144Z,26.40
2024-01-28T04:30:15.271Z,31.30
2024-01-28T04:31:15.147Z,28.30
2024-01-28T04:32:15.085Z,26.30
2024-01-28T04:33:15.157Z,25.70
2024-01-28T04:34:15.157Z,24.10
2024-01-28T04:35:15.074Z,27.10
2024-01-28T04:36:15.079Z,23.50
2024-01-28T04:37:15.075Z,27.50
2024-01-28T04:38:15.053Z,28.00
2024-01-28T04:39:15.083Z,23.70
2024-01-28T04:40:15.018Z,23.70
2024-01-28T04:41:15.001Z,25.00
2024-01-28T04:42:15.019Z,23.80
2024-01-28T04:43:14.993Z,27.60
2024-01-28T04:44:15.001Z,24.80
2024-01-28T04:45:15.024Z,28.20
2024-01-28T04:46:14.959Z,26.30
2024-01-28T04:47:14.966Z,27.20
2024-01-28T04:48:15.074Z,27.60
2024-01-28T04:49:15.054Z,27.10
2024-01-28T04:50:14.913Z,24.70
2024-01-28T04:51:14.984Z,23.50
2024-01-28T04:52:14.897Z,23.30
2024-01-28T04:53:14.894Z,24.90
2024-01-28T04:54:14.912Z,22.60
2024-01-28T04:55:14.875Z,22.40
2024-01-28T04:56:14.853Z,25.30
2024-01-28T04:57:14.882Z,22.10
2024-01-28T04:58:14.831Z,23.60
2024-01-28T04:59:14.857Z,26.90
2024-01-28T05:00:14.876Z,22.60
2024-01-28T05:01:14.928Z,28.20
2024-01-28T05:02:14.798Z,23.40
2024-01-28T05:03:14.931Z,22.50
2024-01-28T05:04:15.009Z,26.60
2024-01-28T05:05:14.801Z,22.40
2024-01-28T05:06:14.852Z,24.00
2024-01-28T05:07:15.016Z,22.40
2024-01-28T05:08:14.734Z,25.80
2024-01-28T05:09:14.779Z,23.50
2024-01-28T05:10:14.757Z,22.10
2024-01-28T05:11:14.715Z,22.20
2024-01-28T05:12:14.713Z,25.50
2024-01-28T05:13:14.708Z,25.10
2024-01-28T05:14:14.692Z,21.20
2024-01-28T05:15:14.677Z,22.50
2024-01-28T05:16:14.775Z,20.10
2024-01-28T05:17:14.694Z,21.50
2024-01-28T05:18:14.743Z,21.70
2024-01-28T05:19:14.910Z,22.60
2024-01-28T05:20:14.690Z,22.50
2024-01-28T05:21:14.708Z,26.60
2024-01-28T05:22:14.664Z,19.50
2024-01-28T05:23:14.610Z,21.20
2024-01-28T05:24:14.697Z,20.90
2024-01-28T05:25:14.713Z,19.30
2024-01-28T05:26:14.682Z,20.00
2024-01-28T05:27:14.697Z,19.50
2024-01-28T05:28:14.531Z,20.50
2024-01-28T05:29:14.621Z,16.90
2024-01-28T05:30:14.722Z,20.60
2024-01-28T05:31:14.660Z,24.30
2024-01-28T05:32:14.537Z,24.30
2024-01-28T05:33:14.742Z,17.90
2024-01-28T05:34:14.549Z,23.00
2024-01-28T05:35:14.480Z,20.20
2024-01-28T05:36:14.523Z,22.30
2024-01-28T05:37:14.464Z,20.30
2024-01-28T05:38:14.438Z,19.70
2024-01-28T05:39:14.450Z,18.40
2024-01-28T05:40:14.449Z,22.40
2024-01-28T05:41:14.421Z,21.50
2024-01-28T05:42:14.412Z,18.10
2024-01-28T05:43:14.406Z,20.30
2024-01-28T05:44:14.390Z,17.50
2024-01-28T05:45:14.401Z,20.30
2024-01-28T05:46:14.352Z,21.80
2024-01-28T05:47:14.348Z,21.40
2024-01-28T05:48:14.454Z,18.70
2024-01-28T05:49:14.502Z,24.40
2024-01-28T05:50:14.313Z,19.80
2024-01-28T05:51:14.356Z,20.30
2024-01-28T05:52:14.325Z,21.00
2024-01-28T05:53:14.291Z,18.50
2024-01-28T05:54:14.327Z,23.20
2024-01-28T05:55:14.268Z,18.00
2024-01-28T05:56:14.267Z,19.10
2024-01-28T05:57:14.300Z,21.10
2024-01-28T05:58:14.233Z,18.10
2024-01-28T05:59:14.251Z,20.60
2024-01-28T06:00:14.247Z,21.80
2024-01-28T06:01:14.368Z,17.70
2024-01-28T06:02:14.194Z,22.30
2024-01-28T06:03:14.216Z,16.30
2024-01-28T06:04:14.201Z,20.30
2024-01-28T06:05:14.179Z,15.60
2024-01-28T06:06:14.255Z,19.80
2024-01-28T06:07:14.181Z,19.00
2024-01-28T06:08:14.122Z,21.30
2024-01-28T06:09:14.164Z,19.80
2024-01-28T06:10:14.121Z,20.90
2024-01-28T06:11:14.112Z,20.50
2024-01-28T06:12:14.145Z,20.60
2024-01-28T06:13:14.287Z,20.20
2024-01-28T06:14:14.103Z,20.60
2024-01-28T06:15:14.114Z,21.10
2024-01-28T06:16:14.043Z,25.20
2024-01-28T06:17:14.054Z,23.20
2024-01-28T06:18:14.072Z,24.30
2024-01-28T06:19:14.139Z,19.80
2024-01-28T06:20:14.002Z,20.50
2024-01-28T06:21:14.030Z,19.10
2024-01-28T06:22:13.981Z,20.10
2024-01-28T06:23:14.007Z,22.00
2024-01-28T06:24:14.057Z,24.40
2024-01-28T06:25:13.969Z,18.40
2024-01-28T06:26:13.961Z,21.00
2024-01-28T06:27:13.943Z,19.70
2024-01-28T06:28:13.928Z,19.90
2024-01-28T06:29:13.949Z,18.80
2024-01-28T06:30:13.951Z,19.60
2024-01-28T06:31:13.908Z,21.50
2024-01-28T06:32:13.886Z,20.60
2024-01-28T06:33:14.022Z,21.30
2024-01-28T06:34:13.999Z,23.30
2024-01-28T06:35:13.864Z,20.10
2024-01-28T06:36:13.890Z,17.30
2024-01-28T06:37:13.857Z,22.70
2024-01-28T06:38:13.828Z,18.50
2024-01-28T06:39:13.863Z,16.50
2024-01-28T06:40:13.820Z,17.80
2024-01-28T06:41:13.805Z,19.80
2024-01-28T06:42:13.812Z,20.10
2024-01-28T06:43:17.045Z,20.80
2024-01-28T06:44:13.780Z,16.90
2024-01-28T06:45:13.828Z,22.70
2024-01-28T06:46:13.765Z,20.10
2024-01-28T06:47:13.752Z,22.70
2024-01-28T06:48:13.846Z,21.20
2024-01-28T06:49:16.789Z,18.40
2024-01-28T06:50:13.797Z,18.00
2024-01-28T06:51:13.788Z,18.50
2024-01-28T06:52:13.696Z,19.20
2024-01-28T06:53:13.702Z,18.70
2024-01-28T06:54:13.738Z,19.80
2024-01-28T06:55:13.674Z,21.70
2024-01-28T06:56:13.652Z,25.00
2024-01-28T06:57:13.659Z,18.60
2024-01-28T06:58:13.632Z,22.00
2024-01-28T06:59:13.640Z,19.50
2024-01-28T07:00:13.635Z,18.40
2024-01-28T07:01:13.862Z,21.10
2024-01-28T07:02:13.654Z,19.20
2024-01-28T07:03:13.667Z,23.70
2024-01-28T07:04:13.647Z,20.60
2024-01-28T07:05:13.590Z,19.10
2024-01-28T07:06:13.602Z,19.50
2024-01-28T07:07:13.582Z,25.10
2024-01-28T07:08:13.531Z,20.40
2024-01-28T07:09:13.605Z,16.80
2024-01-28T07:10:13.537Z,19.80
2024-01-28T07:11:13.516Z,18.10
2024-01-28T07:12:13.561Z,20.30
2024-01-28T07:13:13.508Z,18.50
2024-01-28T07:14:13.482Z,22.10
2024-01-28T07:15:13.543Z,17.30
2024-01-28T07:16:13.481Z,21.10
2024-01-28T07:17:13.452Z,19.50
2024-01-28T07:18:14.148Z,17.90
2024-01-28T07:19:13.492Z,17.90
2024-01-28T07:20:13.430Z,21.80
2024-01-28T07:21:13.454Z,18.90
2024-01-28T07:22:13.627Z,19.80
2024-01-28T07:23:13.391Z,19.10
2024-01-28T07:24:13.395Z,19.60
2024-01-28T07:25:13.407Z,20.40
2024-01-28T07:26:13.902Z,20.40
2024-01-28T07:27:13.953Z,21.00
2024-01-28T07:28:13.326Z,21.50
2024-01-28T07:29:13.334Z,22.00
2024-01-28T07:30:13.430Z,17.50
2024-01-28T07:31:13.294Z,17.30
2024-01-28T07:32:13.289Z,21.30
2024-01-28T07:33:13.424Z,18.30
2024-01-28T07:34:13.347Z,17.00
2024-01-28T07:35:13.286Z,18.30
2024-01-28T07:36:13.263Z,16.90
2024-01-28T07:37:13.246Z,17.20
2024-01-28T07:38:13.284Z,21.50
2024-01-28T07:39:13.277Z,16.80
2024-01-28T07:40:13.234Z,18.90
2024-01-28T07:41:13.223Z,21.60
2024-01-28T07:42:13.246Z,18.50
2024-01-28T07:43:13.195Z,23.20
2024-01-28T07:44:13.207Z,16.80
2024-01-28T07:45:13.200Z,21.30
2024-01-28T07:46:13.163Z,17.50
2024-01-28T07:47:13.162Z,20.80
2024-01-28T07:48:13.315Z,20.00
2024-01-28T07:49:13.286Z,23.40
2024-01-28T07:50:13.220Z,20.40
2024-01-28T07:51:13.154Z,21.20
2024-01-28T07:52:13.095Z,26.60
2024-01-28T07:53:13.101Z,23.10
2024-01-28T07:54:13.123Z,21.40
2024-01-28T07:55:13.176Z,22.00
2024-01-28T07:56:13.061Z,21.90
2024-01-28T07:57:13.185Z,25.10
2024-01-28T07:58:13.039Z,22.40
2024-01-28T07:59:13.060Z,25.60
2024-01-28T08:00:13.093Z,25.30
2024-01-28T08:01:13.026Z,23.30
2024-01-28T08:02:13.118Z,22.10
2024-01-28T08:03:13.048Z,23.90
2024-01-28T08:04:13.104Z,22.00
2024-01-28T08:05:12.998Z,25.20
2024-01-28T08:06:12.992Z,22.80
2024-01-28T08:07:13.024Z,21.80
2024-01-28T08:08:16.118Z,21.80
2024-01-28T08:09:12.952Z,23.20
2024-01-28T08:10:12.933Z,23.50
2024-01-28T08:11:12.921Z,22.80
2024-01-28T08:12:13.041Z,24.30
2024-01-28T08:13:12.895Z,22.40
2024-01-28T08:14:12.919Z,22.00
2024-01-28T08:15:12.989Z,18.00
2024-01-28T08:16:12.861Z,18.20
2024-01-28T08:17:13.160Z,23.10
2024-01-28T08:18:13.007Z,20.20
2024-01-28T08:19:13.111Z,18.90
2024-01-28T08:20:12.844Z,23.20
2024-01-28T08:21:12.848Z,20.50
2024-01-28T08:22:12.821Z,18.50
2024-01-28T08:23:12.783Z,20.50
2024-01-28T08:24:12.824Z,16.90
2024-01-28T08:25:13.001Z,18.00
2024-01-28T08:26:12.768Z,19.70
2024-01-28T08:27:12.807Z,19.30
2024-01-28T08:28:12.740Z,19.90
2024-01-28T08:29:12.770Z,19.80
2024-01-28T08:30:12.910Z,18.80
2024-01-28T08:31:12.705Z,20.00
2024-01-28T08:32:12.710Z,21.00
2024-01-28T08:33:12.846Z,20.80
2024-01-28T08:34:12.891Z,21.70
2024-01-28T08:35:12.850Z,18.00
2024-01-28T08:36:12.708Z,20.50
2024-01-28T08:37:12.654Z,20.60
2024-01-28T08:38:12.643Z,22.10
2024-01-28T08:39:12.683Z,19.10
2024-01-28T08:40:12.679Z,17.70
2024-01-28T08:41:12.751Z,22.40
2024-01-28T08:42:12.609Z,19.10
2024-01-28T08:43:12.628Z,16.30
2024-01-28T08:44:12.600Z,17.90
2024-01-28T08:45:12.619Z,22.40
2024-01-28T08:46:12.715Z,17.20
2024-01-28T08:47:12.601Z,17.00
2024-01-28T08:48:12.781Z,18.60
2024-01-28T08:49:13.647Z,23.30
2024-01-28T08:50:12.576Z,19.90
2024-01-28T08:51:12.615Z,19.80
2024-01-28T08:52:12.559Z,21.40
2024-01-28T08:53:12.548Z,19.20
2024-01-28T08:54:12.542Z,18.40
2024-01-28T08:55:12.546Z,21.30
2024-01-28T08:56:12.472Z,21.30
2024-01-28T08:57:12.468Z,24.50
2024-01-28T08:58:12.484Z,20.00
2024-01-28T08:59:12.480Z,19.10
2024-01-28T09:00:12.509Z,19.80
2024-01-28T09:01:12.512Z,21.40
2024-01-28T09:02:12.454Z,21.50
2024-01-28T09:03:12.456Z,20.90
2024-01-28T09:04:12.737Z,20.20
2024-01-28T09:05:12.563Z,21.80
2024-01-28T09:06:12.572Z,18.50
2024-01-28T09:07:12.455Z,18.50
2024-01-28T09:08:12.387Z,19.00
2024-01-28T09:09:12.935Z,17.20
2024-01-28T09:10:12.540Z,19.30
2024-01-28T09:11:12.370Z,19.40
2024-01-28T09:12:12.326Z,23.00
2024-01-28T09:13:12.361Z,20.30
2024-01-28T09:14:12.325Z,21.90
2024-01-28T09:15:12.362Z,20.70
2024-01-28T09:16:12.303Z,15.70
2024-01-28T09:17:12.877Z,20.20
2024-01-28T09:18:12.367Z,16.60
2024-01-28T09:19:12.356Z,18.90
2024-01-28T09:20:12.489Z,15.40
2024-01-28T09:21:12.293Z,18.40
2024-01-28T09:22:12.723Z,17.60
2024-01-28T09:23:12.206Z,24.20
2024-01-28T09:24:12.260Z,18.70
2024-01-28T09:25:12.200Z,19.20
2024-01-28T09:26:12.205Z,20.70
2024-01-28T09:27:12.183Z,19.30
2024-01-28T09:28:12.163Z,19.00
2024-01-28T09:29:12.142Z,19.90
2024-01-28T09:30:12.179Z,20.20
2024-01-28T09:31:12.232Z,20.90
2024-01-28T09:32:12.105Z,25.90
2024-01-28T09:33:12.233Z,18.70
2024-01-28T09:34:12.132Z,18.80
2024-01-28T09:35:12.098Z,20.50
2024-01-28T09:36:12.136Z,19.20
2024-01-28T09:37:12.074Z,20.00
2024-01-28T09:38:12.061Z,18.10
2024-01-28T09:39:12.097Z,19.60
2024-01-28T09:40:12.027Z,17.90
2024-01-28T09:41:12.040Z,16.60
2024-01-28T09:42:12.121Z,20.70
2024-01-28T09:43:12.000Z,19.30
2024-01-28T09:44:12.259Z,17.20
2024-01-28T09:45:12.035Z,19.20
2024-01-28T09:46:11.976Z,19.70
2024-01-28T09:47:11.976Z,18.20
2024-01-28T09:48:12.038Z,19.50
2024-01-28T09:49:12.095Z,19.80
2024-01-28T09:50:12.034Z,19.20
2024-01-28T09:51:11.977Z,18.40
2024-01-28T09:52:11.984Z,20.10
2024-01-28T09:53:12.101Z,19.30
2024-01-28T09:54:11.939Z,17.90
2024-01-28T09:55:11.930Z,20.50
2024-01-28T09:56:11.913Z,21.20
2024-01-28T09:57:11.890Z,20.40
2024-01-28T09:58:11.836Z,20.30
2024-01-28T09:59:11.886Z,20.80
2024-01-28T10:00:11.911Z,19.00
2024-01-28T10:01:11.890Z,21.20
2024-01-28T10:02:11.879Z,18.90
2024-01-28T10:03:11.927Z,18.70
2024-01-28T10:04:12.048Z,17.70
2024-01-28T10:05:11.846Z,19.60
2024-01-28T10:06:11.819Z,21.90
2024-01-28T10:07:11.875Z,16.70
2024-01-28T10:08:11.785Z,19.10
2024-01-28T10:09:11.919Z,20.50
2024-01-28T10:10:11.738Z,23.10
2024-01-28T10:11:18.056Z,17.40
2024-01-28T10:12:11.773Z,18.60
2024-01-28T10:13:11.688Z,22.50
2024-01-28T10:14:12.075Z,20.60
2024-01-28T10:15:11.712Z,14.50
2024-01-28T10:16:11.706Z,21.40
2024-01-28T10:17:11.651Z,17.50
2024-01-28T10:18:11.743Z,24.10
2024-01-28T10:19:11.784Z,18.90
2024-01-28T10:20:11.666Z,18.10
2024-01-28T10:21:11.662Z,21.30
2024-01-28T10:22:18.475Z,19.90
2024-01-28T10:23:11.586Z,19.70
2024-01-28T10:24:11.656Z,16.40
2024-01-28T10:25:11.577Z,19.70
2024-01-28T10:26:11.661Z,17.60
2024-01-28T10:27:11.617Z,20.60
2024-01-28T10:28:11.552Z,20.10
2024-01-28T10:29:11.524Z,16.50
2024-01-28T10:30:11.527Z,21.90
2024-01-28T10:31:11.521Z,20.50
2024-01-28T10:32:11.490Z,21.10
2024-01-28T10:33:14.470Z,17.20
2024-01-28T10:34:11.552Z,19.70
2024-01-28T10:35:11.560Z,17.90
2024-01-28T10:36:11.499Z,19.00
2024-01-28T10:37:11.456Z,18.30
2024-01-28T10:38:11.440Z,18.60
2024-01-28T10:39:14.843Z,19.00
2024-01-28T10:40:11.470Z,16.40
2024-01-28T10:41:11.418Z,17.50
2024-01-28T10:42:11.457Z,17.30
2024-01-28T10:43:11.392Z,23.40
2024-01-28T10:44:11.364Z,17.30
2024-01-28T10:45:11.467Z,16.60
2024-01-28T10:46:11.428Z,20.90
2024-01-28T10:47:11.347Z,18.10
2024-01-28T10:48:11.451Z,17.20
2024-01-28T10:49:11.499Z,21.30
2024-01-28T10:50:11.364Z,17.30
2024-01-28T10:51:13.913Z,17.80
2024-01-28T10:52:11.291Z,16.30
2024-01-28T10:53:11.286Z,15.40
2024-01-28T10:54:11.316Z,19.40
2024-01-28T10:55:11.279Z,16.70
2024-01-28T10:56:11.334Z,15.60
2024-01-28T10:57:14.524Z,18.70
2024-01-28T10:58:11.248Z,17.60
2024-01-28T10:59:11.280Z,19.10
2024-01-28T11:00:11.320Z,19.70
2024-01-28T11:01:11.450Z,19.50
2024-01-28T11:02:11.218Z,18.80
2024-01-28T11:03:11.220Z,18.50
2024-01-28T11:04:11.352Z,21.20
2024-01-28T11:05:11.238Z,20.70
2024-01-28T11:06:11.389Z,15.90
2024-01-28T11:07:11.183Z,16.90
2024-01-28T11:08:11.127Z,14.60
2024-01-28T11:09:11.199Z,16.10
2024-01-28T11:10:11.110Z,14.20
2024-01-28T11:11:11.119Z,16.20
2024-01-28T11:12:11.129Z,17.70
2024-01-28T11:13:11.082Z,17.00
2024-01-28T11:14:11.080Z,17.10
2024-01-28T11:15:11.110Z,14.90
2024-01-28T11:16:11.055Z,15.40
2024-01-28T11:17:11.056Z,17.30
2024-01-28T11:18:11.118Z,15.60
2024-01-28T11:19:11.073Z,16.30
2024-01-28T11:20:11.005Z,16.90
2024-01-28T11:21:11.139Z,17.20
2024-01-28T11:22:10.982Z,16.30
2024-01-28T11:23:10.988Z,15.40
2024-01-28T11:24:10.983Z,17.80
2024-01-28T11:25:11.493Z,18.10
2024-01-28T11:26:10.952Z,13.80
2024-01-28T11:27:10.988Z,18.00
2024-01-28T11:28:10.944Z,18.50
2024-01-28T11:29:10.943Z,14.90
2024-01-28T11:30:11.007Z,17.40
2024-01-28T11:31:10.933Z,14.10
2024-01-28T11:32:10.887Z,16.30
2024-01-28T11:33:11.255Z,15.40
2024-01-28T11:34:11.040Z,15.10
2024-01-28T11:35:11.048Z,15.70
2024-01-28T11:36:10.934Z,14.40
2024-01-28T11:37:10.845Z,16.50
2024-01-28T11:38:10.851Z,15.40
2024-01-28T11:39:10.875Z,15.20
2024-01-28T11:40:10.808Z,15.20
2024-01-28T11:41:10.815Z,15.80
2024-01-28T11:42:10.863Z,11.20
2024-01-28T11:43:10.778Z,11.40
2024-01-28T11:44:10.763Z,17.00
2024-01-28T11:45:10.778Z,16.50
2024-01-28T11:46:10.756Z,13.30
2024-01-28T11:47:10.758Z,12.30
2024-01-28T11:48:11.312Z,14.10
2024-01-28T11:49:10.860Z,12.60
2024-01-28T11:50:12.882Z,18.50
2024-01-28T11:51:10.762Z,15.70
2024-01-28T11:52:10.688Z,14.60
2024-01-28T11:53:10.679Z,13.70
2024-01-28T11:54:10.687Z,13.60
2024-01-28T11:55:10.665Z,11.60
2024-01-28T11:56:10.680Z,12.00
2024-01-28T11:57:10.713Z,18.60
2024-01-28T11:58:10.656Z,11.20
2024-01-28T11:59:10.624Z,14.00
2024-01-28T12:00:10.640Z,15.10
2024-01-28T12:01:10.683Z,14.60
2024-01-28T12:02:10.588Z,13.60
2024-01-28T12:03:10.658Z,15.70
2024-01-28T12:04:10.577Z,11.60
2024-01-28T12:05:10.658Z,13.30
2024-01-28T12:06:10.608Z,16.20
2024-01-28T12:07:10.707Z,10.90
2024-01-28T12:08:10.553Z,11.70
2024-01-28T12:09:10.583Z,10.40
2024-01-28T12:10:10.536Z,12.00
2024-01-28T12:11:10.530Z,14.70
2024-01-28T12:12:10.543Z,10.80
2024-01-28T12:13:10.498Z,14.30
2024-01-28T12:14:10.479Z,14.20
2024-01-28T12:15:10.544Z,11.70
2024-01-28T12:16:10.501Z,14.20
2024-01-28T12:17:10.447Z,14.50
2024-01-28T12:18:10.677Z,14.90
2024-01-28T12:19:12.912Z,12.40
2024-01-28T12:20:10.431Z,12.40
2024-01-28T12:21:10.504Z,15.30
2024-01-28T12:22:10.396Z,15.20
2024-01-28T12:23:10.416Z,12.30
2024-01-28T12:24:10.472Z,10.50
2024-01-28T12:25:10.453Z,12.80
2024-01-28T12:26:10.393Z,13.20
2024-01-28T12:27:10.388Z,10.80
2024-01-28T12:28:10.341Z,13.60
2024-01-28T12:29:10.339Z,13.10
2024-01-28T12:30:10.475Z,11.10
2024-01-28T12:31:10.677Z,12.00
2024-01-28T12:32:10.288Z,13.80
2024-01-28T12:33:10.478Z,13.20
2024-01-28T12:34:10.432Z,13.00
2024-01-28T12:35:10.332Z,14.70
2024-01-28T12:36:10.273Z,12.30
2024-01-28T12:37:10.254Z,13.80
2024-01-28T12:38:10.221Z,13.80
2024-01-28T12:39:10.305Z,13.10
2024-01-28T12:40:10.228Z,14.30
2024-01-28T12:41:10.220Z,15.10
2024-01-28T12:42:10.211Z,13.10
2024-01-28T12:43:11.010Z,14.80
2024-01-28T12:44:10.176Z,13.90
2024-01-28T12:45:10.501Z,11.30
2024-01-28T12:46:10.200Z,13.70
2024-01-28T12:47:10.152Z,11.30
2024-01-28T12:48:10.230Z,11.90
2024-01-28T12:49:12.872Z,12.50
2024-01-28T12:50:10.203Z,11.30
2024-01-28T12:51:10.213Z,12.20
2024-01-28T12:52:10.099Z,13.80